sensor_id;sensor_type;location;lat;lon;timestamp;pressure;altitude;pressure_sealevel;temperature;humidity
76746;BME280;65671;49.976;20.038;2022-12-18T00:02:12;99349.56;;;-5.37;83.78
76746;BME280;65671;49.976;20.038;2022-12-18T00:04:37;99362.75;;;-5.42;83.25
76746;BME280;65671;49.976;20.038;2022-12-18T00:07:03;99360.97;;;-5.31;83.40
76746;BME280;65671;49.976;20.038;2022-12-18T00:09:28;99366.78;;;-5.29;84.21
76746;BME280;65671;49.976;20.038;2022-12-18T00:11:54;99369.72;;;-5.26;83.28
76746;BME280;65671;49.976;20.038;2022-12-18T00:14:20;99372.59;;;-5.32;83.12
76746;BME280;65671;49.976;20.038;2022-12-18T00:16:46;99381.31;;;-5.27;83.82
76746;BME280;65671;49.976;20.038;2022-12-18T00:19:12;99382.94;;;-5.21;83.85
76746;BME280;65671;49.976;20.038;2022-12-18T00:21:41;99386.00;;;-5.39;82.88
76746;BME280;65671;49.976;20.038;2022-12-18T00:24:08;99384.16;;;-5.38;83.79
76746;BME280;65671;49.976;20.038;2022-12-18T00:26:35;99397.06;;;-5.42;84.73
76746;BME280;65671;49.976;20.038;2022-12-18T00:29:08;99393.91;;;-5.39;83.91
76746;BME280;65671;49.976;20.038;2022-12-18T00:31:34;99407.13;;;-5.34;83.50
76746;BME280;65671;49.976;20.038;2022-12-18T00:34:00;99396.13;;;-5.26;83.90
76746;BME280;65671;49.976;20.038;2022-12-18T00:36:27;99398.41;;;-5.34;83.55
76746;BME280;65671;49.976;20.038;2022-12-18T00:38:55;99401.13;;;-5.24;84.34
76746;BME280;65671;49.976;20.038;2022-12-18T00:41:21;99401.22;;;-5.14;83.78
76746;BME280;65671;49.976;20.038;2022-12-18T00:44:07;99410.94;;;-5.20;83.28
76746;BME280;65671;49.976;20.038;2022-12-18T00:46:33;99416.22;;;-5.20;82.14
76746;BME280;65671;49.976;20.038;2022-12-18T00:48:59;99416.63;;;-5.38;84.00
76746;BME280;65671;49.976;20.038;2022-12-18T00:51:25;99416.66;;;-5.33;83.77
76746;BME280;65671;49.976;20.038;2022-12-18T00:53:52;99436.16;;;-5.34;84.22
76746;BME280;65671;49.976;20.038;2022-12-18T00:56:17;99437.56;;;-5.26;84.09
76746;BME280;65671;49.976;20.038;2022-12-18T00:58:43;99436.00;;;-5.22;82.75
76746;BME280;65671;49.976;20.038;2022-12-18T01:01:08;99430.31;;;-5.41;84.06
76746;BME280;65671;49.976;20.038;2022-12-18T01:03:34;99429.09;;;-5.28;83.04
76746;BME280;65671;49.976;20.038;2022-12-18T01:06:08;99429.97;;;-5.18;82.77
76746;BME280;65671;49.976;20.038;2022-12-18T01:08:34;99432.22;;;-5.31;82.82
76746;BME280;65671;49.976;20.038;2022-12-18T01:11:00;99444.28;;;-5.09;82.54
76746;BME280;65671;49.976;20.038;2022-12-18T01:13:27;99447.13;;;-5.15;82.18
76746;BME280;65671;49.976;20.038;2022-12-18T01:15:52;99447.34;;;-5.22;82.41
76746;BME280;65671;49.976;20.038;2022-12-18T01:18:18;99444.50;;;-5.15;82.32
76746;BME280;65671;49.976;20.038;2022-12-18T01:20:44;99445.78;;;-5.23;83.03
76746;BME280;65671;49.976;20.038;2022-12-18T01:23:09;99449.66;;;-5.30;84.17
76746;BME280;65671;49.976;20.038;2022-12-18T01:25:38;99452.84;;;-5.28;82.81
76746;BME280;65671;49.976;20.038;2022-12-18T01:28:03;99455.75;;;-5.30;83.92
76746;BME280;65671;49.976;20.038;2022-12-18T01:30:29;99458.00;;;-5.12;82.92
76746;BME280;65671;49.976;20.038;2022-12-18T01:32:54;99455.59;;;-5.13;82.39
76746;BME280;65671;49.976;20.038;2022-12-18T01:35:20;99471.59;;;-5.30;83.77
76746;BME280;65671;49.976;20.038;2022-12-18T01:37:45;99465.81;;;-5.27;82.95
76746;BME280;65671;49.976;20.038;2022-12-18T01:40:11;99467.44;;;-5.21;82.57
76746;BME280;65671;49.976;20.038;2022-12-18T01:42:36;99473.22;;;-5.24;82.91
76746;BME280;65671;49.976;20.038;2022-12-18T01:45:22;99476.19;;;-5.15;83.13
76746;BME280;65671;49.976;20.038;2022-12-18T01:48:01;99469.56;;;-5.18;82.37
76746;BME280;65671;49.976;20.038;2022-12-18T01:50:35;99476.34;;;-5.27;84.21
76746;BME280;65671;49.976;20.038;2022-12-18T01:55:51;99475.75;;;-5.34;84.11
76746;BME280;65671;49.976;20.038;2022-12-18T01:58:19;99477.66;;;-5.29;83.36
76746;BME280;65671;49.976;20.038;2022-12-18T02:00:45;99479.41;;;-5.40;83.02
76746;BME280;65671;49.976;20.038;2022-12-18T02:03:11;99473.06;;;-5.44;83.88
76746;BME280;65671;49.976;20.038;2022-12-18T02:11:09;99485.63;;;-5.24;84.07
76746;BME280;65671;49.976;20.038;2022-12-18T02:16:45;99505.38;;;-5.32;83.24
76746;BME280;65671;49.976;20.038;2022-12-18T02:22:29;99507.84;;;-5.20;83.36
76746;BME280;65671;49.976;20.038;2022-12-18T02:27:37;99523.97;;;-5.17;82.71
76746;BME280;65671;49.976;20.038;2022-12-18T02:30:05;99520.78;;;-5.19;83.01
76746;BME280;65671;49.976;20.038;2022-12-18T02:32:40;99532.44;;;-5.15;82.13
76746;BME280;65671;49.976;20.038;2022-12-18T02:35:13;99536.59;;;-5.19;82.59
76746;BME280;65671;49.976;20.038;2022-12-18T02:37:40;99531.84;;;-5.22;82.85
76746;BME280;65671;49.976;20.038;2022-12-18T02:40:09;99532.44;;;-5.15;82.35
76746;BME280;65671;49.976;20.038;2022-12-18T02:42:36;99530.25;;;-5.23;83.04
76746;BME280;65671;49.976;20.038;2022-12-18T02:45:01;99537.38;;;-5.23;83.22
76746;BME280;65671;49.976;20.038;2022-12-18T02:47:33;99534.94;;;-5.30;82.75
76746;BME280;65671;49.976;20.038;2022-12-18T02:58:21;99553.09;;;-5.33;83.70
76746;BME280;65671;49.976;20.038;2022-12-18T03:01:02;99557.69;;;-5.24;82.42
76746;BME280;65671;49.976;20.038;2022-12-18T03:06:06;99558.22;;;-5.22;83.11
76746;BME280;65671;49.976;20.038;2022-12-18T03:08:41;99548.28;;;-5.15;82.92
76746;BME280;65671;49.976;20.038;2022-12-18T03:11:12;99562.22;;;-5.19;83.11
76746;BME280;65671;49.976;20.038;2022-12-18T03:13:51;99560.88;;;-5.22;83.36
76746;BME280;65671;49.976;20.038;2022-12-18T03:16:23;99568.28;;;-5.19;81.41
76746;BME280;65671;49.976;20.038;2022-12-18T03:18:54;99576.22;;;-5.19;82.26
76746;BME280;65671;49.976;20.038;2022-12-18T03:23:51;99576.06;;;-5.07;81.07
76746;BME280;65671;49.976;20.038;2022-12-18T03:26:20;99572.06;;;-5.10;82.41
76746;BME280;65671;49.976;20.038;2022-12-18T03:28:51;99577.31;;;-5.15;81.55
76746;BME280;65671;49.976;20.038;2022-12-18T03:31:18;99578.69;;;-5.07;81.90
76746;BME280;65671;49.976;20.038;2022-12-18T03:33:51;99586.06;;;-5.09;82.77
76746;BME280;65671;49.976;20.038;2022-12-18T03:36:17;99587.41;;;-5.07;82.73
76746;BME280;65671;49.976;20.038;2022-12-18T03:38:43;99581.78;;;-5.15;82.80
76746;BME280;65671;49.976;20.038;2022-12-18T03:43:51;99598.47;;;-5.10;82.21
76746;BME280;65671;49.976;20.038;2022-12-18T03:46:30;99599.66;;;-5.22;82.22
76746;BME280;65671;49.976;20.038;2022-12-18T03:49:02;99606.50;;;-5.26;82.90
76746;BME280;65671;49.976;20.038;2022-12-18T03:51:42;99606.84;;;-5.18;82.18
76746;BME280;65671;49.976;20.038;2022-12-18T03:54:11;99603.97;;;-5.16;81.48
76746;BME280;65671;49.976;20.038;2022-12-18T03:56:45;99607.91;;;-5.19;83.02
76746;BME280;65671;49.976;20.038;2022-12-18T03:59:13;99598.97;;;-5.13;82.21
76746;BME280;65671;49.976;20.038;2022-12-18T04:01:46;99600.09;;;-5.09;82.86
76746;BME280;65671;49.976;20.038;2022-12-18T04:04:14;99606.16;;;-5.08;82.42
76746;BME280;65671;49.976;20.038;2022-12-18T04:06:42;99616.47;;;-5.07;82.43
76746;BME280;65671;49.976;20.038;2022-12-18T04:09:09;99625.72;;;-5.04;82.45
76746;BME280;65671;49.976;20.038;2022-12-18T04:11:35;99629.66;;;-5.07;81.37
76746;BME280;65671;49.976;20.038;2022-12-18T04:14:00;99620.72;;;-5.05;81.40
76746;BME280;65671;49.976;20.038;2022-12-18T04:16:26;99621.66;;;-5.17;82.31
76746;BME280;65671;49.976;20.038;2022-12-18T04:18:53;99624.69;;;-5.03;82.61
76746;BME280;65671;49.976;20.038;2022-12-18T04:21:19;99616.63;;;-5.18;81.75
76746;BME280;65671;49.976;20.038;2022-12-18T04:23:45;99624.03;;;-5.15;81.62
76746;BME280;65671;49.976;20.038;2022-12-18T04:26:10;99625.00;;;-4.99;81.02
76746;BME280;65671;49.976;20.038;2022-12-18T04:28:36;99633.59;;;-5.09;82.15
76746;BME280;65671;49.976;20.038;2022-12-18T04:31:01;99642.72;;;-5.22;81.71
76746;BME280;65671;49.976;20.038;2022-12-18T04:33:27;99636.44;;;-5.16;82.50
76746;BME280;65671;49.976;20.038;2022-12-18T04:35:53;99639.22;;;-5.00;82.24
76746;BME280;65671;49.976;20.038;2022-12-18T04:38:18;99643.81;;;-5.18;81.33
76746;BME280;65671;49.976;20.038;2022-12-18T04:40:44;99635.84;;;-5.23;82.06
76746;BME280;65671;49.976;20.038;2022-12-18T04:43:09;99636.09;;;-5.24;82.86
76746;BME280;65671;49.976;20.038;2022-12-18T04:45:35;99644.91;;;-5.14;81.35
76746;BME280;65671;49.976;20.038;2022-12-18T04:48:02;99654.97;;;-5.11;81.46
76746;BME280;65671;49.976;20.038;2022-12-18T04:50:28;99654.97;;;-5.11;81.00
76746;BME280;65671;49.976;20.038;2022-12-18T04:52:54;99660.75;;;-5.14;81.74
76746;BME280;65671;49.976;20.038;2022-12-18T04:55:20;99662.13;;;-5.11;81.09
76746;BME280;65671;49.976;20.038;2022-12-18T04:57:45;99666.63;;;-5.07;82.02
76746;BME280;65671;49.976;20.038;2022-12-18T05:00:12;99664.75;;;-5.11;82.46
76746;BME280;65671;49.976;20.038;2022-12-18T05:02:38;99672.97;;;-5.08;80.94
76746;BME280;65671;49.976;20.038;2022-12-18T05:05:04;99669.47;;;-5.13;82.11
76746;BME280;65671;49.976;20.038;2022-12-18T05:07:30;99675.00;;;-5.15;82.17
76746;BME280;65671;49.976;20.038;2022-12-18T05:09:56;99672.09;;;-5.13;81.46
76746;BME280;65671;49.976;20.038;2022-12-18T05:12:24;99678.94;;;-5.17;81.04
76746;BME280;65671;49.976;20.038;2022-12-18T05:14:50;99679.22;;;-5.14;81.74
76746;BME280;65671;49.976;20.038;2022-12-18T05:17:16;99679.31;;;-5.09;80.62
76746;BME280;65671;49.976;20.038;2022-12-18T05:19:41;99680.78;;;-5.18;81.68
76746;BME280;65671;49.976;20.038;2022-12-18T05:22:07;99678.44;;;-5.14;81.88
76746;BME280;65671;49.976;20.038;2022-12-18T05:24:33;99686.13;;;-5.13;81.25
76746;BME280;65671;49.976;20.038;2022-12-18T05:26:58;99689.06;;;-5.09;81.85
76746;BME280;65671;49.976;20.038;2022-12-18T05:29:24;99695.63;;;-5.12;81.06
76746;BME280;65671;49.976;20.038;2022-12-18T05:31:49;99689.19;;;-5.21;82.52
76746;BME280;65671;49.976;20.038;2022-12-18T05:34:15;99689.25;;;-5.16;81.52
76746;BME280;65671;49.976;20.038;2022-12-18T05:36:41;99691.66;;;-5.14;81.80
76746;BME280;65671;49.976;20.038;2022-12-18T05:39:06;99689.44;;;-5.22;81.23
76746;BME280;65671;49.976;20.038;2022-12-18T05:41:32;99693.81;;;-5.11;80.93
76746;BME280;65671;49.976;20.038;2022-12-18T05:43:58;99694.34;;;-5.09;81.82
76746;BME280;65671;49.976;20.038;2022-12-18T05:46:24;99698.63;;;-5.03;81.62
76746;BME280;65671;49.976;20.038;2022-12-18T05:48:50;99706.75;;;-5.10;81.61
76746;BME280;65671;49.976;20.038;2022-12-18T05:51:19;99709.16;;;-5.08;81.20
76746;BME280;65671;49.976;20.038;2022-12-18T05:53:45;99718.28;;;-5.16;81.62
76746;BME280;65671;49.976;20.038;2022-12-18T05:56:17;99710.63;;;-5.17;81.31
76746;BME280;65671;49.976;20.038;2022-12-18T05:58:44;99713.50;;;-5.19;81.81
76746;BME280;65671;49.976;20.038;2022-12-18T06:01:16;99716.81;;;-5.28;81.79
76746;BME280;65671;49.976;20.038;2022-12-18T06:03:42;99721.91;;;-5.22;81.82
76746;BME280;65671;49.976;20.038;2022-12-18T06:06:21;99729.72;;;-5.10;81.14
76746;BME280;65671;49.976;20.038;2022-12-18T06:08:48;99729.41;;;-5.14;80.78
76746;BME280;65671;49.976;20.038;2022-12-18T06:11:18;99734.13;;;-5.16;80.24
76746;BME280;65671;49.976;20.038;2022-12-18T06:13:44;99736.34;;;-5.08;81.50
76746;BME280;65671;49.976;20.038;2022-12-18T06:16:09;99740.03;;;-5.09;80.82
76746;BME280;65671;49.976;20.038;2022-12-18T06:18:38;99745.75;;;-5.17;80.90
76746;BME280;65671;49.976;20.038;2022-12-18T06:21:04;99749.00;;;-5.10;80.86
76746;BME280;65671;49.976;20.038;2022-12-18T06:23:30;99751.44;;;-5.03;80.54
76746;BME280;65671;49.976;20.038;2022-12-18T06:25:56;99751.69;;;-5.04;80.52
76746;BME280;65671;49.976;20.038;2022-12-18T06:28:21;99748.44;;;-5.12;80.42
76746;BME280;65671;49.976;20.038;2022-12-18T06:30:47;99747.97;;;-5.09;80.21
76746;BME280;65671;49.976;20.038;2022-12-18T06:33:13;99757.34;;;-5.18;81.01
76746;BME280;65671;49.976;20.038;2022-12-18T06:35:40;99752.63;;;-5.16;80.13
76746;BME280;65671;49.976;20.038;2022-12-18T06:38:05;99748.56;;;-5.01;80.37
76746;BME280;65671;49.976;20.038;2022-12-18T06:40:31;99756.06;;;-5.15;80.97
76746;BME280;65671;49.976;20.038;2022-12-18T06:42:57;99760.91;;;-5.07;80.99
76746;BME280;65671;49.976;20.038;2022-12-18T06:45:22;99768.59;;;-5.05;80.84
76746;BME280;65671;49.976;20.038;2022-12-18T06:47:48;99775.59;;;-4.94;79.63
76746;BME280;65671;49.976;20.038;2022-12-18T06:50:13;99775.09;;;-4.91;80.46
76746;BME280;65671;49.976;20.038;2022-12-18T06:52:39;99777.38;;;-5.00;80.24
76746;BME280;65671;49.976;20.038;2022-12-18T06:55:08;99772.91;;;-4.99;81.02
76746;BME280;65671;49.976;20.038;2022-12-18T06:57:34;99768.09;;;-5.02;79.81
76746;BME280;65671;49.976;20.038;2022-12-18T06:59:59;99787.44;;;-4.97;80.21
76746;BME280;65671;49.976;20.038;2022-12-18T07:02:26;99789.69;;;-4.84;79.82
76746;BME280;65671;49.976;20.038;2022-12-18T07:04:51;99794.03;;;-4.99;80.51
76746;BME280;65671;49.976;20.038;2022-12-18T07:07:17;99795.22;;;-5.07;79.11
76746;BME280;65671;49.976;20.038;2022-12-18T07:09:42;99798.94;;;-5.08;80.37
76746;BME280;65671;49.976;20.038;2022-12-18T07:12:08;99802.97;;;-5.00;80.12
76746;BME280;65671;49.976;20.038;2022-12-18T07:14:33;99808.88;;;-4.93;79.63
76746;BME280;65671;49.976;20.038;2022-12-18T07:16:59;99802.94;;;-5.05;79.97
76746;BME280;65671;49.976;20.038;2022-12-18T07:19:24;99806.44;;;-5.00;80.59
76746;BME280;65671;49.976;20.038;2022-12-18T07:21:50;99811.53;;;-4.93;78.93
76746;BME280;65671;49.976;20.038;2022-12-18T07:24:16;99813.69;;;-4.90;80.58
76746;BME280;65671;49.976;20.038;2022-12-18T07:26:41;99809.97;;;-4.89;79.18
76746;BME280;65671;49.976;20.038;2022-12-18T07:29:07;99817.72;;;-4.83;79.59
76746;BME280;65671;49.976;20.038;2022-12-18T07:31:33;99823.66;;;-4.92;78.56
76746;BME280;65671;49.976;20.038;2022-12-18T07:33:58;99829.53;;;-4.90;79.90
76746;BME280;65671;49.976;20.038;2022-12-18T07:36:24;99831.78;;;-4.77;79.39
76746;BME280;65671;49.976;20.038;2022-12-18T07:38:50;99841.19;;;-4.86;79.07
76746;BME280;65671;49.976;20.038;2022-12-18T07:41:17;99855.13;;;-4.69;78.49
76746;BME280;65671;49.976;20.038;2022-12-18T07:43:44;99854.03;;;-4.73;78.04
76746;BME280;65671;49.976;20.038;2022-12-18T07:46:10;99850.91;;;-4.70;79.26
76746;BME280;65671;49.976;20.038;2022-12-18T07:48:36;99862.16;;;-4.58;79.29
76746;BME280;65671;49.976;20.038;2022-12-18T07:51:03;99863.81;;;-4.52;77.63
76746;BME280;65671;49.976;20.038;2022-12-18T07:53:30;99860.59;;;-4.54;77.68
76746;BME280;65671;49.976;20.038;2022-12-18T07:56:07;99862.63;;;-4.61;77.55
76746;BME280;65671;49.976;20.038;2022-12-18T07:58:34;99862.31;;;-4.43;78.07
76746;BME280;65671;49.976;20.038;2022-12-18T08:01:11;99865.38;;;-4.51;79.29
76746;BME280;65671;49.976;20.038;2022-12-18T08:03:38;99862.88;;;-4.41;77.81
76746;BME280;65671;49.976;20.038;2022-12-18T08:06:06;99870.97;;;-4.26;78.24
76746;BME280;65671;49.976;20.038;2022-12-18T08:08:32;99874.28;;;-4.35;77.73
76746;BME280;65671;49.976;20.038;2022-12-18T08:10:58;99871.47;;;-4.29;78.11
76746;BME280;65671;49.976;20.038;2022-12-18T08:13:24;99863.22;;;-4.32;78.05
76746;BME280;65671;49.976;20.038;2022-12-18T08:16:03;99869.50;;;-4.12;76.77
76746;BME280;65671;49.976;20.038;2022-12-18T08:18:29;99874.50;;;-4.15;76.13
76746;BME280;65671;49.976;20.038;2022-12-18T08:20:55;99876.28;;;-3.94;77.30
76746;BME280;65671;49.976;20.038;2022-12-18T08:23:21;99880.28;;;-3.91;76.58
76746;BME280;65671;49.976;20.038;2022-12-18T08:25:46;99888.56;;;-3.83;75.48
76746;BME280;65671;49.976;20.038;2022-12-18T08:28:12;99883.09;;;-3.71;75.68
76746;BME280;65671;49.976;20.038;2022-12-18T08:30:38;99886.84;;;-3.67;75.80
76746;BME280;65671;49.976;20.038;2022-12-18T08:33:03;99896.75;;;-3.53;75.30
76746;BME280;65671;49.976;20.038;2022-12-18T08:35:29;99889.41;;;-3.77;75.71
76746;BME280;65671;49.976;20.038;2022-12-18T08:37:54;99892.50;;;-3.85;75.76
76746;BME280;65671;49.976;20.038;2022-12-18T08:40:21;99888.97;;;-3.69;74.65
76746;BME280;65671;49.976;20.038;2022-12-18T08:42:47;99880.63;;;-3.51;74.62
76746;BME280;65671;49.976;20.038;2022-12-18T08:45:34;99894.63;;;-3.56;74.35
76746;BME280;65671;49.976;20.038;2022-12-18T08:47:59;99901.47;;;-3.60;75.25
76746;BME280;65671;49.976;20.038;2022-12-18T08:50:25;99896.22;;;-3.55;73.67
76746;BME280;65671;49.976;20.038;2022-12-18T08:52:50;99897.88;;;-3.49;73.90
76746;BME280;65671;49.976;20.038;2022-12-18T08:55:16;99903.41;;;-3.50;74.64
76746;BME280;65671;49.976;20.038;2022-12-18T08:57:42;99906.69;;;-3.38;74.62
76746;BME280;65671;49.976;20.038;2022-12-18T09:00:10;99911.44;;;-3.40;73.74
76746;BME280;65671;49.976;20.038;2022-12-18T09:02:36;99913.69;;;-3.54;75.21
76746;BME280;65671;49.976;20.038;2022-12-18T09:05:02;99910.66;;;-3.35;73.97
76746;BME280;65671;49.976;20.038;2022-12-18T09:07:27;99911.81;;;-3.21;74.20
76746;BME280;65671;49.976;20.038;2022-12-18T09:09:53;99915.78;;;-3.24;73.20
76746;BME280;65671;49.976;20.038;2022-12-18T09:12:18;99913.13;;;-3.24;74.84
76746;BME280;65671;49.976;20.038;2022-12-18T09:14:44;99916.59;;;-3.23;74.56
76746;BME280;65671;49.976;20.038;2022-12-18T09:17:09;99925.03;;;-3.26;73.46
76746;BME280;65671;49.976;20.038;2022-12-18T09:19:35;99916.25;;;-3.32;74.75
76746;BME280;65671;49.976;20.038;2022-12-18T09:22:00;99922.72;;;-3.18;73.84
76746;BME280;65671;49.976;20.038;2022-12-18T09:24:26;99925.13;;;-3.16;72.69
76746;BME280;65671;49.976;20.038;2022-12-18T09:26:54;99929.66;;;-3.07;73.49
76746;BME280;65671;49.976;20.038;2022-12-18T09:29:22;99935.91;;;-2.86;72.52
76746;BME280;65671;49.976;20.038;2022-12-18T09:31:49;99927.69;;;-2.90;72.84
76746;BME280;65671;49.976;20.038;2022-12-18T09:34:15;99938.47;;;-3.01;72.29
76746;BME280;65671;49.976;20.038;2022-12-18T09:36:40;99935.44;;;-3.15;73.45
76746;BME280;65671;49.976;20.038;2022-12-18T09:39:06;99938.53;;;-2.91;73.65
76746;BME280;65671;49.976;20.038;2022-12-18T09:41:46;99927.63;;;-2.95;73.91
76746;BME280;65671;49.976;20.038;2022-12-18T09:49:39;99927.44;;;-3.25;73.72
76746;BME280;65671;49.976;20.038;2022-12-18T09:54:58;99934.19;;;-3.07;74.10
76746;BME280;65671;49.976;20.038;2022-12-18T09:57:25;99934.97;;;-3.07;73.53
76746;BME280;65671;49.976;20.038;2022-12-18T09:59:58;99936.75;;;-3.17;73.80
76746;BME280;65671;49.976;20.038;2022-12-18T10:02:26;99933.25;;;-3.28;73.53
76746;BME280;65671;49.976;20.038;2022-12-18T10:07:47;99930.59;;;-3.28;72.65
76746;BME280;65671;49.976;20.038;2022-12-18T10:12:55;99926.56;;;-3.35;73.14
76746;BME280;65671;49.976;20.038;2022-12-18T10:18:43;99925.88;;;-3.53;74.22
76746;BME280;65671;49.976;20.038;2022-12-18T10:21:18;99920.84;;;-3.54;73.81
76746;BME280;65671;49.976;20.038;2022-12-18T10:26:41;99935.38;;;-3.57;73.69
76746;BME280;65671;49.976;20.038;2022-12-18T10:29:15;99931.09;;;-3.63;74.02
76746;BME280;65671;49.976;20.038;2022-12-18T10:31:41;99928.78;;;-3.54;75.14
76746;BME280;65671;49.976;20.038;2022-12-18T10:34:11;99920.72;;;-3.69;74.97
76746;BME280;65671;49.976;20.038;2022-12-18T10:36:40;99932.44;;;-3.28;73.51
76746;BME280;65671;49.976;20.038;2022-12-18T10:39:22;99930.25;;;-3.37;73.56
76746;BME280;65671;49.976;20.038;2022-12-18T10:41:48;99918.88;;;-3.37;73.67
76746;BME280;65671;49.976;20.038;2022-12-18T10:44:23;99921.53;;;-3.37;73.58
76746;BME280;65671;49.976;20.038;2022-12-18T10:46:55;99918.56;;;-3.41;74.09
76746;BME280;65671;49.976;20.038;2022-12-18T10:49:31;99915.47;;;-3.27;73.17
76746;BME280;65671;49.976;20.038;2022-12-18T10:54:51;99910.88;;;-3.42;73.87
76746;BME280;65671;49.976;20.038;2022-12-18T10:57:38;99906.06;;;-3.50;73.40
76746;BME280;65671;49.976;20.038;2022-12-18T11:00:24;99910.81;;;-3.15;74.87
76746;BME280;65671;49.976;20.038;2022-12-18T11:02:51;99899.41;;;-3.53;75.07
76746;BME280;65671;49.976;20.038;2022-12-18T11:05:31;99910.94;;;-3.37;73.90
76746;BME280;65671;49.976;20.038;2022-12-18T11:07:59;99913.69;;;-3.54;75.02
76746;BME280;65671;49.976;20.038;2022-12-18T11:10:36;99907.00;;;-3.66;75.00
76746;BME280;65671;49.976;20.038;2022-12-18T11:13:11;99899.56;;;-3.69;74.88
76746;BME280;65671;49.976;20.038;2022-12-18T11:15:40;99905.00;;;-3.49;74.13
76746;BME280;65671;49.976;20.038;2022-12-18T11:18:36;99904.66;;;-3.26;74.03
76746;BME280;65671;49.976;20.038;2022-12-18T11:23:28;99890.38;;;-3.20;73.27
76746;BME280;65671;49.976;20.038;2022-12-18T11:26:04;99876.41;;;-3.10;72.32
76746;BME280;65671;49.976;20.038;2022-12-18T11:28:38;99882.22;;;-3.13;71.85
76746;BME280;65671;49.976;20.038;2022-12-18T11:33:35;99880.63;;;-3.14;72.71
76746;BME280;65671;49.976;20.038;2022-12-18T11:36:02;99877.56;;;-2.96;70.24
76746;BME280;65671;49.976;20.038;2022-12-18T11:38:32;99878.81;;;-3.04;71.56
76746;BME280;65671;49.976;20.038;2022-12-18T11:41:40;99890.13;;;-3.18;72.82
76746;BME280;65671;49.976;20.038;2022-12-18T11:44:35;99884.28;;;-3.20;71.20
76746;BME280;65671;49.976;20.038;2022-12-18T11:49:56;99890.41;;;-3.15;72.73
76746;BME280;65671;49.976;20.038;2022-12-18T11:52:35;99895.28;;;-3.02;72.58
76746;BME280;65671;49.976;20.038;2022-12-18T11:55:51;99897.28;;;-2.72;69.42
76746;BME280;65671;49.976;20.038;2022-12-18T11:59:12;99899.47;;;-3.06;71.29
76746;BME280;65671;49.976;20.038;2022-12-18T12:04:12;99897.25;;;-3.24;73.45
76746;BME280;65671;49.976;20.038;2022-12-18T12:09:24;99902.09;;;-3.48;73.18
76746;BME280;65671;49.976;20.038;2022-12-18T12:25:26;99898.94;;;-3.45;74.03
76746;BME280;65671;49.976;20.038;2022-12-18T12:30:52;99898.41;;;-3.78;75.35
76746;BME280;65671;49.976;20.038;2022-12-18T12:36:32;99914.13;;;-3.93;74.82
76746;BME280;65671;49.976;20.038;2022-12-18T12:39:06;99916.78;;;-3.93;74.62
76746;BME280;65671;49.976;20.038;2022-12-18T12:41:33;99925.09;;;-4.07;75.16
76746;BME280;65671;49.976;20.038;2022-12-18T12:44:24;99929.44;;;-3.96;75.57
76746;BME280;65671;49.976;20.038;2022-12-18T12:46:56;99943.69;;;-4.02;74.85
76746;BME280;65671;49.976;20.038;2022-12-18T12:49:27;99938.66;;;-3.76;74.32
76746;BME280;65671;49.976;20.038;2022-12-18T12:52:07;99930.31;;;-3.90;75.07
76746;BME280;65671;49.976;20.038;2022-12-18T12:54:36;99938.44;;;-3.97;73.97
76746;BME280;65671;49.976;20.038;2022-12-18T12:57:16;99941.81;;;-4.01;75.72
76746;BME280;65671;49.976;20.038;2022-12-18T13:00:04;99947.81;;;-4.11;74.71
76746;BME280;65671;49.976;20.038;2022-12-18T13:02:56;99944.19;;;-4.05;75.02
76746;BME280;65671;49.976;20.038;2022-12-18T13:13:07;99961.06;;;-4.11;75.27
76746;BME280;65671;49.976;20.038;2022-12-18T13:15:47;99967.06;;;-4.15;75.06
76746;BME280;65671;49.976;20.038;2022-12-18T13:18:22;99961.22;;;-4.17;75.39
76746;BME280;65671;49.976;20.038;2022-12-18T13:25:45;99966.78;;;-4.40;76.06
76746;BME280;65671;49.976;20.038;2022-12-18T13:28:13;99961.41;;;-4.67;77.94
76746;BME280;65671;49.976;20.038;2022-12-18T13:30:51;99953.25;;;-4.82;77.23
76746;BME280;65671;49.976;20.038;2022-12-18T13:38:23;99964.63;;;-4.82;78.86
76746;BME280;65671;49.976;20.038;2022-12-18T13:40:59;99959.56;;;-4.83;78.70
76746;BME280;65671;49.976;20.038;2022-12-18T13:43:31;99967.09;;;-4.75;76.86
76746;BME280;65671;49.976;20.038;2022-12-18T13:46:17;99984.81;;;-4.76;78.09
76746;BME280;65671;49.976;20.038;2022-12-18T13:48:51;99979.69;;;-4.82;76.10
76746;BME280;65671;49.976;20.038;2022-12-18T13:51:17;99981.78;;;-4.84;76.86
76746;BME280;65671;49.976;20.038;2022-12-18T13:53:49;99995.69;;;-4.89;77.61
76746;BME280;65671;49.976;20.038;2022-12-18T13:56:17;99990.19;;;-5.04;75.28
76746;BME280;65671;49.976;20.038;2022-12-18T13:58:43;99998.72;;;-5.47;77.27
76746;BME280;65671;49.976;20.038;2022-12-18T14:01:23;99997.31;;;-5.66;77.69
76746;BME280;65671;49.976;20.038;2022-12-18T14:03:49;100004.28;;;-5.60;77.00
76746;BME280;65671;49.976;20.038;2022-12-18T14:06:16;99994.53;;;-5.59;77.39
76746;BME280;65671;49.976;20.038;2022-12-18T14:08:42;99997.84;;;-5.81;76.63
76746;BME280;65671;49.976;20.038;2022-12-18T14:11:20;100006.34;;;-5.79;77.17
76746;BME280;65671;49.976;20.038;2022-12-18T14:13:47;100013.34;;;-5.84;77.99
76746;BME280;65671;49.976;20.038;2022-12-18T14:16:14;100014.16;;;-5.84;77.82
76746;BME280;65671;49.976;20.038;2022-12-18T14:18:43;100019.91;;;-5.87;78.54
76746;BME280;65671;49.976;20.038;2022-12-18T14:21:26;100011.38;;;-5.94;77.17
76746;BME280;65671;49.976;20.038;2022-12-18T14:26:30;100020.13;;;-6.16;78.62
76746;BME280;65671;49.976;20.038;2022-12-18T14:29:00;100020.50;;;-6.36;79.18
76746;BME280;65671;49.976;20.038;2022-12-18T14:31:31;100020.50;;;-6.36;79.20
76746;BME280;65671;49.976;20.038;2022-12-18T14:33:57;100015.81;;;-6.46;79.51
76746;BME280;65671;49.976;20.038;2022-12-18T14:36:27;100013.63;;;-6.37;79.45
76746;BME280;65671;49.976;20.038;2022-12-18T14:38:56;100015.94;;;-6.52;79.93
76746;BME280;65671;49.976;20.038;2022-12-18T14:41:24;100009.91;;;-6.76;79.01
76746;BME280;65671;49.976;20.038;2022-12-18T14:43:51;100017.09;;;-6.71;80.04
76746;BME280;65671;49.976;20.038;2022-12-18T14:46:35;100025.81;;;-6.59;78.80
76746;BME280;65671;49.976;20.038;2022-12-18T14:51:31;100025.56;;;-6.81;79.83
76746;BME280;65671;49.976;20.038;2022-12-18T14:54:05;100034.97;;;-6.73;79.21